Time;durP1;ratioP1;P1;durP2;ratioP2;P2;SDS_P1;SDS_P2;PMS_P1;PMS_P2;Temp;Humidity;BMP_temperature;BMP_pressure;BME280_temperature;BME280_humidity;BME280_pressure;Samples;Min_cycle;Max_cycle;Signal;HPM_P1;HPM_P2
2023/10/12 00:01:23;;;;;;;11.38;7.25;;;20.20;99.90;;;;;;5013636;28;20026;-70
2023/10/12 00:03:54;;;;;;;11.45;7.38;;;20.10;99.90;;;;;;5013710;28;20030;-70
2023/10/12 00:06:20;;;;;;;14.20;8.23;;;20.10;99.90;;;;;;5013441;28;20022;-70
2023/10/12 00:08:46;;;;;;;15.38;8.20;;;20.10;99.90;;;;;;5013491;28;20117;-70
2023/10/12 00:11:11;;;;;;;10.27;7.80;;;20.10;99.90;;;;;;5013520;28;20467;-70
2023/10/12 00:13:41;;;;;;;11.70;8.68;;;20.10;99.90;;;;;;5013159;28;20022;-70
2023/10/12 00:16:09;;;;;;;13.15;8.65;;;20.10;99.90;;;;;;5013615;28;20026;-70
2023/10/12 00:18:35;;;;;;;11.68;8.38;;;20.00;99.90;;;;;;5013487;28;20026;-70
2023/10/12 00:21:08;;;;;;;14.13;9.57;;;20.00;99.90;;;;;;5013410;28;20105;-70
2023/10/12 00:23:34;;;;;;;14.07;9.15;;;20.00;99.90;;;;;;5014168;28;20499;-70
2023/10/12 00:25:59;;;;;;;15.32;9.55;;;20.00;99.90;;;;;;5017488;28;20109;-70
2023/10/12 00:28:37;;;;;;;12.20;9.00;;;20.00;99.90;;;;;;5016596;28;20109;-70
2023/10/12 00:31:06;;;;;;;13.57;9.45;;;20.00;99.90;;;;;;5017332;28;20014;-70
2023/10/12 00:33:32;;;;;;;12.90;9.93;;;19.90;99.90;;;;;;5017423;28;20014;-70
2023/10/12 00:36:04;;;;;;;13.77;9.82;;;20.00;99.90;;;;;;5017400;28;20121;-71
2023/10/12 00:38:30;;;;;;;13.27;9.27;;;19.90;99.90;;;;;;5017208;28;20390;-70
2023/10/12 00:41:04;;;;;;;15.15;10.13;;;19.90;99.90;;;;;;5016919;28;20014;-71
2023/10/12 00:43:39;;;;;;;14.70;9.32;;;19.90;99.90;;;;;;5017341;28;20061;-71
2023/10/12 00:51:49;;;;;;;17.83;10.50;;;19.80;99.90;;;;;;5019419;28;20284;-70
2023/10/12 00:54:25;;;;;;;12.57;10.18;;;19.80;99.90;;;;;;5017221;28;20105;-70
2023/10/12 00:57:01;;;;;;;16.50;11.10;;;19.90;99.90;;;;;;5016365;28;20037;-70
2023/10/12 00:59:31;;;;;;;14.40;10.68;;;19.90;99.90;;;;;;5016906;28;20022;-70
2023/10/12 01:02:02;;;;;;;18.73;10.77;;;19.90;99.90;;;;;;5016657;28;20026;-70
2023/10/12 01:04:31;;;;;;;16.52;10.60;;;19.90;99.90;;;;;;5016890;28;20483;-70
2023/10/12 01:07:00;;;;;;;17.63;12.05;;;19.90;99.90;;;;;;5016523;28;20117;-70
2023/10/12 01:09:38;;;;;;;12.15;10.48;;;19.80;99.90;;;;;;5016916;28;20097;-70
2023/10/12 01:12:13;;;;;;;12.02;10.35;;;19.80;99.90;;;;;;5016527;28;20135;-70
2023/10/12 01:14:48;;;;;;;17.20;11.27;;;19.90;99.90;;;;;;5015313;28;20363;-70
2023/10/12 01:17:24;;;;;;;13.30;10.77;;;19.80;99.90;;;;;;5016466;28;20053;-70
2023/10/12 01:19:51;;;;;;;12.43;10.40;;;19.80;99.90;;;;;;5016978;28;20061;-70
2023/10/12 01:22:25;;;;;;;16.85;11.35;;;19.80;99.90;;;;;;5016232;28;20022;-70
2023/10/12 01:27:22;;;;;;;16.02;10.82;;;19.80;99.90;;;;;;5016175;28;20160;-70
2023/10/12 01:29:52;;;;;;;15.13;11.73;;;19.80;99.90;;;;;;5016256;28;20022;-70
2023/10/12 01:34:55;;;;;;;16.23;11.68;;;19.80;99.90;;;;;;5015759;28;20022;-70
2023/10/12 01:37:23;;;;;;;16.45;10.70;;;19.70;99.90;;;;;;5015764;28;20026;-70
2023/10/12 01:42:42;;;;;;;17.75;12.05;;;19.70;99.90;;;;;;5015875;28;20033;-70
2023/10/12 01:46:00;;;;;;;16.30;12.45;;;19.70;99.90;;;;;;5015983;28;20388;-70
2023/10/12 01:48:05;;;;;;;20.85;11.90;;;19.70;99.90;;;;;;5011980;28;20049;-70
2023/10/12 01:50:33;;;;;;;15.70;11.38;;;19.60;99.90;;;;;;5016536;28;20026;-70
2023/10/12 01:52:58;;;;;;;14.85;12.10;;;19.60;99.90;;;;;;5016360;28;20022;-70
2023/10/12 01:55:32;;;;;;;14.45;11.15;;;19.70;99.90;;;;;;5016009;28;20076;-71
2023/10/12 01:57:58;;;;;;;17.38;11.93;;;19.70;99.90;;;;;;5015616;28;20040;-70
2023/10/12 02:00:41;;;;;;;13.20;11.73;;;19.60;99.90;;;;;;5016155;28;20022;-70
2023/10/12 02:05:45;;;;;;;14.65;11.15;;;19.60;99.90;;;;;;5015922;28;20022;-70
2023/10/12 02:08:16;;;;;;;16.00;11.07;;;19.60;99.90;;;;;;5015033;28;20030;-70
2023/10/12 02:10:43;;;;;;;19.02;12.82;;;19.60;99.90;;;;;;5015791;28;20022;-70
2023/10/12 02:13:12;;;;;;;16.58;11.63;;;19.60;99.90;;;;;;5015339;28;20102;-70
2023/10/12 02:15:38;;;;;;;16.60;11.43;;;19.60;99.90;;;;;;5015574;28;20479;-70
2023/10/12 02:18:11;;;;;;;19.08;12.85;;;19.60;99.90;;;;;;5015249;28;20029;-70
2023/10/12 02:20:42;;;;;;;17.15;12.20;;;19.60;99.90;;;;;;5015421;28;20026;-70
2023/10/12 02:23:12;;;;;;;16.42;11.88;;;19.70;99.90;;;;;;5015152;28;20030;-70
2023/10/12 02:25:50;;;;;;;18.10;12.30;;;19.60;99.90;;;;;;5015396;28;20073;-70
2023/10/12 02:28:22;;;;;;;15.40;11.40;;;19.60;99.90;;;;;;5014702;28;20125;-70
2023/10/12 02:30:55;;;;;;;16.60;11.90;;;19.50;99.90;;;;;;5015292;28;20029;-70
2023/10/12 02:33:26;;;;;;;14.82;12.20;;;19.60;99.90;;;;;;5015026;28;20100;-70
2023/10/12 02:35:52;;;;;;;15.57;12.20;;;19.50;99.90;;;;;;5015119;28;20107;-70
2023/10/12 02:38:19;;;;;;;18.90;12.13;;;19.50;99.90;;;;;;5014656;28;20129;-70
2023/10/12 02:40:45;;;;;;;18.63;12.43;;;19.50;99.90;;;;;;5015141;28;20033;-70
2023/10/12 02:43:11;;;;;;;16.48;11.85;;;19.50;99.90;;;;;;5014882;28;20025;-70
2023/10/12 02:45:42;;;;;;;15.35;12.13;;;19.60;99.90;;;;;;5015222;28;20034;-70
2023/10/12 02:48:13;;;;;;;16.92;11.90;;;19.50;99.90;;;;;;5014627;28;20459;-70
2023/10/12 02:50:58;;;;;;;14.57;11.55;;;19.50;99.90;;;;;;5013652;28;20371;-70
2023/10/12 02:53:29;;;;;;;15.00;11.30;;;19.50;99.90;;;;;;5013470;28;20030;-70
2023/10/12 02:55:58;;;;;;;17.02;11.02;;;19.50;99.90;;;;;;5014707;28;20018;-70
2023/10/12 02:58:31;;;;;;;17.40;11.32;;;19.50;99.90;;;;;;5014506;28;20026;-70
2023/10/12 03:01:13;;;;;;;15.48;11.75;;;19.50;99.90;;;;;;5014757;28;20026;-70
2023/10/12 03:03:54;;;;;;;13.55;10.65;;;19.40;99.90;;;;;;5014458;28;20026;-70
2023/10/12 03:06:23;;;;;;;12.52;11.10;;;19.40;99.90;;;;;;5013150;28;20018;-70
2023/10/12 03:11:28;;;;;;;14.60;11.07;;;19.50;99.90;;;;;;5014713;28;20030;-70
2023/10/12 03:14:13;;;;;;;14.05;10.38;;;19.50;99.90;;;;;;5014469;28;20026;-70
2023/10/12 03:16:42;;;;;;;15.35;10.50;;;19.40;99.90;;;;;;5014373;28;20026;-70
2023/10/12 03:21:52;;;;;;;18.25;10.98;;;19.40;99.90;;;;;;5014310;28;20472;-70
2023/10/12 03:24:38;;;;;;;;;;;19.50;99.90;;;;;;5014780;28;20021;-70
2023/10/12 03:29:29;;;;;;;16.50;10.45;;;19.40;99.90;;;;;;5013599;28;20049;-70
2023/10/12 03:31:58;;;;;;;13.10;9.93;;;19.40;99.90;;;;;;5011623;28;20109;-70
2023/10/12 03:34:53;;;;;;;13.00;9.07;;;19.40;99.90;;;;;;5014011;28;20036;-70
2023/10/12 03:37:44;;;;;;;12.88;9.65;;;19.40;99.90;;;;;;5013913;28;20018;-70
2023/10/12 03:42:55;;;;;;;11.27;9.68;;;19.40;99.90;;;;;;5014416;28;20509;-69
2023/10/12 03:45:25;;;;;;;14.73;9.50;;;19.40;99.90;;;;;;5014083;28;20022;-70
2023/10/12 03:48:04;;;;;;;13.63;9.77;;;19.40;99.90;;;;;;5013752;28;20038;-70
2023/10/12 03:50:34;;;;;;;15.68;10.38;;;19.40;99.90;;;;;;5013429;28;20105;-70
2023/10/12 03:53:04;;;;;;;10.85;9.30;;;19.30;99.90;;;;;;5013750;28;20025;-70
2023/10/12 03:55:33;;;;;;;12.70;9.77;;;19.30;99.90;;;;;;5013203;28;20018;-70
2023/10/12 03:58:07;;;;;;;14.77;10.40;;;19.30;99.90;;;;;;5012542;28;20030;-70
2023/10/12 04:01:05;;;;;;;13.90;8.88;;;19.30;99.90;;;;;;5012665;28;20471;-70
2023/10/12 04:03:40;;;;;;;15.85;9.70;;;19.30;99.90;;;;;;5014090;28;20490;-70
2023/10/12 04:06:22;;;;;;;14.85;9.43;;;19.20;99.90;;;;;;5013520;28;20109;-70
2023/10/12 04:08:59;;;;;;;12.52;9.75;;;19.20;99.90;;;;;;5013410;28;20069;-70
2023/10/12 04:14:19;;;;;;;12.38;9.70;;;19.20;99.90;;;;;;5013659;28;20064;-71
2023/10/12 04:16:45;;;;;;;12.65;9.48;;;19.20;99.90;;;;;;5013614;28;20455;-70
2023/10/12 04:19:15;;;;;;;15.40;9.30;;;19.20;99.90;;;;;;5012953;28;20526;-70
2023/10/12 04:22:16;;;;;;;10.43;8.15;;;19.30;99.90;;;;;;5013496;28;20045;-71
2023/10/12 04:24:27;;;;;;;12.88;9.45;;;19.50;99.90;;;;;;5013102;28;20038;-70
2023/10/12 04:29:39;;;;;;;12.23;8.60;;;19.70;99.90;;;;;;5013470;28;20497;-71
2023/10/12 04:32:15;;;;;;;13.40;9.57;;;19.70;99.90;;;;;;5013246;28;20030;-70
2023/10/12 04:34:50;;;;;;;9.10;8.18;;;19.70;99.90;;;;;;5012897;28;20045;-70
2023/10/12 04:37:25;;;;;;;12.80;7.95;;;19.70;99.90;;;;;;5013336;28;20106;-70
2023/10/12 04:39:56;;;;;;;11.52;9.15;;;19.70;99.90;;;;;;5013041;28;20068;-70
2023/10/12 04:42:26;;;;;;;13.02;8.57;;;19.70;99.90;;;;;;5012277;28;20117;-70
2023/10/12 04:47:35;;;;;;;11.30;9.05;;;19.70;99.90;;;;;;5011818;28;20064;-70
2023/10/12 04:50:04;;;;;;;17.88;9.98;;;19.70;99.90;;;;;;5012949;28;20486;-70
2023/10/12 04:52:33;;;;;;;10.15;8.57;;;19.70;99.90;;;;;;5013032;28;20060;-70
2023/10/12 04:55:06;;;;;;;15.45;10.13;;;19.70;99.90;;;;;;5012864;28;20483;-70
2023/10/12 04:57:34;;;;;;;14.68;9.40;;;19.70;99.90;;;;;;5013077;28;20541;-70
2023/10/12 05:07:57;;;;;;;10.43;9.00;;;19.70;99.90;;;;;;5013190;28;20038;-70
2023/10/12 05:10:46;;;;;;;13.35;9.95;;;19.70;99.90;;;;;;5014693;28;20026;-70
2023/10/12 05:13:12;;;;;;;11.75;8.93;;;19.60;99.90;;;;;;5016585;28;20026;-70
2023/10/12 05:15:40;;;;;;;10.45;9.02;;;19.60;99.90;;;;;;5014560;28;20068;-70
2023/10/12 05:18:11;;;;;;;9.93;8.85;;;19.60;99.90;;;;;;5015675;28;20065;-70
2023/10/12 05:20:43;;;;;;;13.27;8.68;;;19.60;99.90;;;;;;5014376;28;20080;-70
2023/10/12 05:23:11;;;;;;;;;;;19.60;99.90;;;;;;5021495;28;20033;-71
2023/10/12 05:25:48;;;;;;;10.63;8.88;;;19.70;99.90;;;;;;5014668;28;19918;-70
2023/10/12 05:28:18;;;;;;;15.90;9.73;;;19.60;99.90;;;;;;5018235;28;20043;-70
2023/10/12 05:30:50;;;;;;;14.38;9.65;;;19.60;99.90;;;;;;5013695;28;20034;-70
2023/10/12 05:33:38;;;;;;;;;;;19.60;99.90;;;;;;5014745;28;20030;-70
2023/10/12 05:36:12;;;;;;;13.27;9.30;;;19.70;99.90;;;;;;5014400;28;19909;-70
2023/10/12 05:39:14;;;;;;;14.00;8.77;;;19.70;99.90;;;;;;5015482;28;20509;-70
2023/10/12 05:41:40;;;;;;;12.43;8.68;;;19.60;99.90;;;;;;5015784;28;20549;-70
2023/10/12 05:44:09;;;;;;;13.40;8.65;;;19.60;99.90;;;;;;5015805;28;20049;-70
2023/10/12 05:46:38;;;;;;;14.45;9.18;;;19.60;99.90;;;;;;5015130;28;20114;-70
2023/10/12 05:49:14;;;;;;;10.32;7.90;;;19.70;99.90;;;;;;5015509;28;20033;-70
2023/10/12 05:51:45;;;;;;;13.02;7.45;;;19.60;99.90;;;;;;5015516;28;20057;-69
2023/10/12 05:54:20;;;;;;;28.70;7.97;;;19.50;99.90;;;;;;5011095;28;20026;-70
2023/10/12 05:56:47;;;;;;;10.77;7.95;;;19.40;99.90;;;;;;5010104;28;20030;-69
2023/10/12 05:59:13;;;;;;;11.40;8.95;;;19.40;99.90;;;;;;5009377;28;20427;-70
2023/10/12 06:01:45;;;;;;;15.48;9.38;;;19.40;99.90;;;;;;5013258;28;20438;-70
2023/10/12 06:04:14;;;;;;;16.58;9.30;;;19.40;99.90;;;;;;5010929;28;20050;-70
2023/10/12 06:06:44;;;;;;;11.77;7.60;;;19.40;99.90;;;;;;5013666;28;20068;-69
2023/10/12 06:09:24;;;;;;;10.60;7.78;;;19.40;99.90;;;;;;5014427;28;20034;-69
2023/10/12 06:11:51;;;;;;;13.75;8.10;;;19.40;99.90;;;;;;5017034;28;20089;-70
2023/10/12 06:14:20;;;;;;;12.10;9.15;;;19.40;99.90;;;;;;5015919;28;20050;-70
2023/10/12 06:16:47;;;;;;;18.60;8.60;;;19.40;99.90;;;;;;5011279;28;20471;-71
2023/10/12 06:19:26;;;;;;;14.07;8.65;;;19.40;99.90;;;;;;5008981;28;20038;-71
2023/10/12 06:21:51;;;;;;;12.55;9.32;;;19.40;99.90;;;;;;5010825;28;20021;-71
2023/10/12 06:24:31;;;;;;;15.13;9.73;;;19.40;99.90;;;;;;5014225;28;20041;-71
2023/10/12 06:26:56;;;;;;;15.00;9.68;;;19.40;99.90;;;;;;5008488;28;20088;-70
2023/10/12 06:29:26;;;;;;;13.70;8.90;;;19.40;99.90;;;;;;5010929;28;20069;-71
2023/10/12 06:31:53;;;;;;;14.32;10.43;;;19.30;99.90;;;;;;5012809;28;20022;-71
2023/10/12 06:34:19;;;;;;;15.77;10.07;;;19.30;99.90;;;;;;5013487;28;20105;-71
2023/10/12 06:36:45;;;;;;;14.90;9.82;;;19.30;99.90;;;;;;5007637;28;20049;-71
2023/10/12 06:46:46;;;;;;;16.15;9.40;;;19.30;99.90;;;;;;5011798;28;20034;-70
2023/10/12 06:49:18;;;;;;;15.32;9.80;;;19.30;99.90;;;;;;5011466;28;20040;-70
2023/10/12 06:51:53;;;;;;;13.73;9.45;;;19.30;99.90;;;;;;5013273;28;20029;-71
2023/10/12 06:54:31;;;;;;;16.67;10.32;;;19.30;99.90;;;;;;5014207;28;20061;-70
2023/10/12 06:57:29;;;;;;;14.90;10.35;;;19.30;99.90;;;;;;5014249;28;20032;-71
2023/10/12 07:02:29;;;;;;;11.35;8.20;;;19.30;99.90;;;;;;5014179;28;20022;-69
2023/10/12 07:04:55;;;;;;;10.75;8.18;;;19.30;99.90;;;;;;5014161;28;20108;-71
2023/10/12 07:07:41;;;;;;;14.95;10.65;;;19.30;99.90;;;;;;5013825;28;20033;-74
2023/10/12 07:12:48;;;;;;;13.48;8.52;;;19.30;99.90;;;;;;5013742;28;20217;-73
2023/10/12 07:15:25;;;;;;;9.73;7.35;;;19.30;99.90;;;;;;5013985;28;20487;-73
2023/10/12 07:17:52;;;;;;;15.32;10.20;;;19.30;99.90;;;;;;5014257;28;20030;-73
2023/10/12 07:20:53;;;;;;;13.73;9.35;;;19.30;99.90;;;;;;5012018;28;20053;-71
2023/10/12 07:23:15;;;;;;;19.48;9.18;;;19.30;99.90;;;;;;4991334;28;20467;-69
2023/10/12 07:25:45;;;;;;;16.83;9.98;;;19.30;99.90;;;;;;4999686;28;20022;-71
2023/10/12 07:28:18;;;;;;;14.93;9.23;;;19.30;99.90;;;;;;5013081;28;20030;-71
2023/10/12 07:31:03;;;;;;;12.75;8.60;;;19.40;99.90;;;;;;5012663;28;20065;-71
2023/10/12 07:33:30;;;;;;;15.30;9.27;;;19.40;99.90;;;;;;5011769;28;20530;-71
2023/10/12 07:36:06;;;;;;;10.80;8.25;;;19.40;99.90;;;;;;5011942;28;20570;-72
2023/10/12 07:38:37;;;;;;;14.43;9.90;;;19.40;99.90;;;;;;5012399;28;20030;-70
2023/10/12 07:41:09;;;;;;;18.03;11.37;;;19.40;99.90;;;;;;5013536;28;20101;-72
2023/10/12 07:43:38;;;;;;;10.75;8.95;;;19.40;99.90;;;;;;5013450;28;20084;-71
2023/10/12 07:46:12;;;;;;;16.88;11.07;;;19.40;99.90;;;;;;5012643;28;20105;-72
2023/10/12 07:48:45;;;;;;;14.18;10.77;;;19.40;99.90;;;;;;5000007;28;20046;-69
2023/10/12 07:51:30;;;;;;;15.68;10.20;;;19.40;99.90;;;;;;5002740;28;20026;-71
2023/10/12 07:54:00;;;;;;;14.48;10.15;;;19.40;99.90;;;;;;5013050;28;20072;-70
2023/10/12 07:56:33;;;;;;;17.25;10.77;;;19.30;99.90;;;;;;5012503;28;20052;-70
2023/10/12 07:59:00;;;;;;;13.75;9.70;;;19.30;99.90;;;;;;5010249;28;20025;-70
2023/10/12 08:03:58;;;;;;;13.35;9.07;;;19.30;99.90;;;;;;5013370;28;20042;-70
2023/10/12 08:06:42;;;;;;;10.55;8.30;;;19.40;99.90;;;;;;5011812;28;20101;-70
2023/10/12 08:12:24;;;;;;;15.48;8.68;;;19.30;99.90;;;;;;4983849;28;20397;-70
2023/10/12 08:14:53;;;;;;;12.07;8.38;;;19.30;99.90;;;;;;5009939;28;20026;-71
2023/10/12 08:17:29;;;;;;;11.77;8.15;;;19.40;99.90;;;;;;5013149;28;20029;-71
2023/10/12 08:22:39;;;;;;;9.38;7.63;;;19.40;99.90;;;;;;5011580;28;20037;-71
2023/10/12 08:25:05;;;;;;;11.40;8.18;;;19.40;99.90;;;;;;5011139;28;20022;-72
2023/10/12 08:27:43;;;;;;;11.25;7.97;;;19.40;99.90;;;;;;5013023;28;20030;-70
2023/10/12 08:30:13;;;;;;;13.75;7.93;;;19.40;99.90;;;;;;5012688;28;20034;-69
2023/10/12 08:32:56;;;;;;;12.40;8.00;;;19.40;99.90;;;;;;5013320;28;20037;-70
2023/10/12 08:38:33;;;;;;;10.25;6.25;;;19.40;99.90;;;;;;5010346;28;20030;-69
2023/10/12 08:43:48;;;;;;;11.85;7.45;;;19.40;99.90;;;;;;5013514;28;20064;-71
2023/10/12 08:46:37;;;;;;;8.80;6.97;;;19.50;99.90;;;;;;5015546;28;20022;-71
2023/10/12 08:49:33;;;;;;;12.00;7.25;;;19.40;99.90;;;;;;5014203;28;20505;-72
2023/10/12 08:52:04;;;;;;;12.20;6.70;;;19.40;99.90;;;;;;5015559;28;20037;-69
2023/10/12 08:54:37;;;;;;;8.90;6.22;;;19.40;99.90;;;;;;5014201;28;20037;-70
2023/10/12 08:57:19;;;;;;;9.77;6.85;;;19.40;99.90;;;;;;5013067;28;20097;-71
2023/10/12 08:59:58;;;;;;;13.68;6.63;;;19.40;99.90;;;;;;5015839;28;20050;-72
2023/10/12 09:02:24;;;;;;;11.65;6.88;;;19.40;99.90;;;;;;5013628;28;20036;-74
2023/10/12 09:04:52;;;;;;;14.02;7.55;;;19.40;99.90;;;;;;5013887;28;20026;-77
2023/10/12 09:07:21;;;;;;;11.23;6.22;;;19.40;99.90;;;;;;5013607;28;20014;-77
2023/10/12 09:09:55;;;;;;;11.35;6.63;;;19.40;99.90;;;;;;5014234;28;20033;-72
2023/10/12 09:12:21;;;;;;;12.07;7.03;;;19.40;99.90;;;;;;5001746;28;20022;-77
2023/10/12 09:14:50;;;;;;;13.10;7.22;;;19.50;99.90;;;;;;4999149;28;20026;-76
2023/10/12 09:17:30;;;;;;;10.65;7.13;;;19.50;99.90;;;;;;5007849;28;20032;-76
2023/10/12 09:22:45;;;;;;;10.90;7.25;;;19.50;99.90;;;;;;5014405;28;20124;-74
2023/10/12 09:25:34;;;;;;;10.57;6.07;;;19.50;99.90;;;;;;5010724;28;20025;-70
2023/10/12 09:27:57;;;;;;;13.98;6.72;;;19.50;99.90;;;;;;5013022;28;20552;-70
2023/10/12 09:30:26;;;;;;;8.98;6.68;;;19.50;99.90;;;;;;5015471;28;20030;-71
2023/10/12 09:33:05;;;;;;;12.50;6.38;;;19.50;99.90;;;;;;5015228;28;20033;-71
2023/10/12 09:35:40;;;;;;;10.30;6.05;;;19.50;99.90;;;;;;5013568;28;20057;-70
2023/10/12 09:38:06;;;;;;;9.77;6.30;;;19.50;99.90;;;;;;5013562;28;20025;-76
2023/10/12 09:40:42;;;;;;;11.43;6.90;;;19.50;99.90;;;;;;5013071;28;20419;-71
2023/10/12 09:43:15;;;;;;;10.18;5.88;;;19.50;99.90;;;;;;5010982;28;20133;-72
2023/10/12 09:45:47;;;;;;;17.13;7.38;;;19.60;99.90;;;;;;5012157;28;20026;-71
2023/10/12 09:48:29;;;;;;;10.63;6.82;;;19.50;99.90;;;;;;5001996;28;20077;-72
2023/10/12 09:50:56;;;;;;;8.27;6.15;;;19.60;99.90;;;;;;5009138;28;20026;-71
2023/10/12 09:53:35;;;;;;;14.38;8.50;;;19.50;99.90;;;;;;5008434;28;20113;-72
2023/10/12 09:56:16;;;;;;;12.75;6.85;;;19.60;99.90;;;;;;5011072;28;20022;-72
2023/10/12 09:59:29;;;;;;;8.93;6.47;;;19.60;99.90;;;;;;5011100;28;20040;-72
2023/10/12 10:09:48;;;;;;;13.77;6.75;;;19.60;99.90;;;;;;5014468;28;20056;-72
2023/10/12 10:12:16;;;;;;;10.35;7.68;;;19.50;99.90;;;;;;5014112;28;20104;-72
2023/10/12 10:14:45;;;;;;;13.82;7.60;;;19.60;99.90;;;;;;5013876;28;20045;-71
2023/10/12 10:17:15;;;;;;;12.02;6.90;;;19.60;99.90;;;;;;5009369;28;20026;-71
2023/10/12 10:19:43;;;;;;;10.10;6.97;;;19.60;99.90;;;;;;5014376;28;20542;-72
2023/10/12 10:22:14;;;;;;;14.20;8.38;;;19.60;99.90;;;;;;5012990;28;20032;-72
2023/10/12 10:24:50;;;;;;;9.60;8.15;;;19.60;99.90;;;;;;5012467;28;20129;-72
2023/10/12 10:27:17;;;;;;;10.93;7.78;;;19.70;99.90;;;;;;5012289;28;20027;-72
2023/10/12 10:29:56;;;;;;;9.20;7.55;;;19.60;99.90;;;;;;5013321;28;20128;-71
2023/10/12 10:32:36;;;;;;;10.60;6.70;;;19.60;99.90;;;;;;5014417;28;20018;-72
2023/10/12 10:35:13;;;;;;;10.95;6.75;;;19.60;99.90;;;;;;5012897;28;20029;-72
2023/10/12 10:37:47;;;;;;;9.88;6.78;;;19.70;99.90;;;;;;5013712;28;20030;-72
2023/10/12 10:40:20;;;;;;;8.15;6.68;;;19.60;99.90;;;;;;5012975;28;20116;-71
2023/10/12 10:43:00;;;;;;;12.57;7.07;;;19.60;99.90;;;;;;5009013;28;21856;-72
2023/10/12 10:45:26;;;;;;;10.90;6.85;;;19.60;99.90;;;;;;5009736;28;20041;-72
2023/10/12 10:47:52;;;;;;;14.65;7.18;;;19.70;99.90;;;;;;5012916;28;20042;-71
2023/10/12 10:50:20;;;;;;;13.23;8.73;;;19.70;99.90;;;;;;5007159;28;20032;-72
2023/10/12 10:52:45;;;;;;;10.70;6.78;;;19.70;99.90;;;;;;5012639;28;20030;-71
2023/10/12 10:55:12;;;;;;;12.70;8.07;;;19.70;99.90;;;;;;5016237;28;20458;-72
2023/10/12 10:57:38;;;;;;;10.77;8.27;;;19.70;99.90;;;;;;5016806;28;20394;-71
2023/10/12 11:00:15;;;;;;;23.40;9.55;;;19.70;99.90;;;;;;5015884;28;20026;-72
2023/10/12 11:02:41;;;;;;;31.98;9.38;;;19.70;99.90;;;;;;5012673;28;20246;-71
2023/10/12 11:05:11;;;;;;;21.23;8.73;;;19.70;99.90;;;;;;5012362;28;20117;-72
2023/10/12 11:07:40;;;;;;;27.65;9.95;;;19.70;99.90;;;;;;5016487;28;20037;-71
2023/10/12 11:10:07;;;;;;;30.60;9.05;;;19.80;99.90;;;;;;5014563;28;20122;-71
2023/10/12 11:12:36;;;;;;;14.90;8.05;;;19.80;99.90;;;;;;5011679;28;20037;-70
2023/10/12 11:15:11;;;;;;;26.95;9.05;;;19.80;99.90;;;;;;5009309;28;20025;-71
2023/10/12 11:17:41;;;;;;;19.35;8.68;;;19.80;99.90;;;;;;4998814;28;20060;-69
2023/10/12 11:20:38;;;;;;;16.52;7.65;;;19.80;99.90;;;;;;5007387;28;20022;-70
2023/10/12 11:23:07;;;;;;;20.20;7.88;;;19.80;99.90;;;;;;5000643;28;20122;-69
2023/10/12 11:25:39;;;;;;;16.88;7.50;;;19.80;99.90;;;;;;5009054;28;20018;-69
2023/10/12 11:28:26;;;;;;;17.42;7.18;;;19.80;99.90;;;;;;5010090;28;20398;-69
2023/10/12 11:31:01;;;;;;;17.50;7.15;;;19.90;99.90;;;;;;4995840;28;20030;-69
2023/10/12 11:33:28;;;;;;;12.60;7.00;;;19.80;99.90;;;;;;5004639;28;20025;-70
2023/10/12 11:36:00;;;;;;;9.75;6.25;;;19.80;99.90;;;;;;5009275;28;20022;-70
2023/10/12 11:38:26;;;;;;;9.75;6.20;;;19.80;99.90;;;;;;5000224;28;20029;-69
2023/10/12 11:40:52;;;;;;;14.73;7.70;;;19.80;99.90;;;;;;4999240;28;20018;-70
2023/10/12 11:43:19;;;;;;;15.63;7.10;;;19.80;99.90;;;;;;5003770;28;20038;-70
2023/10/12 11:46:01;;;;;;;12.10;5.82;;;19.80;99.90;;;;;;5005931;28;20023;-69
2023/10/12 11:48:28;;;;;;;12.45;7.10;;;19.80;99.90;;;;;;5002317;28;20137;-70
2023/10/12 11:50:55;;;;;;;10.77;6.57;;;19.90;99.90;;;;;;4997474;28;20030;-69
2023/10/12 11:53:21;;;;;;;14.68;7.32;;;19.90;99.90;;;;;;4995481;28;20045;-69
2023/10/12 11:55:51;;;;;;;10.55;6.28;;;19.90;99.90;;;;;;5005030;28;20487;-69
2023/10/12 11:58:19;;;;;;;12.85;6.95;;;19.90;99.90;;;;;;5004744;28;20337;-69
2023/10/12 12:00:48;;;;;;;9.80;6.80;;;19.90;99.90;;;;;;4993325;28;20357;-69
2023/10/12 12:03:15;;;;;;;8.77;6.75;;;19.90;99.90;;;;;;5000914;28;20030;-69
2023/10/12 12:05:42;;;;;;;14.02;6.43;;;19.90;99.90;;;;;;5005417;28;20045;-69
2023/10/12 12:08:19;;;;;;;9.93;6.10;;;19.90;99.90;;;;;;5013440;28;20471;-70
2023/10/12 12:13:20;;;;;;;11.38;6.60;;;19.90;99.90;;;;;;5011711;28;20062;-69
2023/10/12 12:15:47;;;;;;;8.90;5.90;;;19.90;99.90;;;;;;5010428;28;20025;-69
2023/10/12 12:18:18;;;;;;;9.27;5.97;;;20.00;99.90;;;;;;5011269;28;20475;-69
2023/10/12 12:20:45;;;;;;;12.95;5.88;;;20.00;99.90;;;;;;5005712;28;20022;-68
2023/10/12 12:23:11;;;;;;;12.50;6.93;;;20.00;99.90;;;;;;5000138;28;20026;-69
2023/10/12 12:25:39;;;;;;;12.00;6.07;;;19.90;99.90;;;;;;5003450;28;20030;-69
2023/10/12 12:28:16;;;;;;;10.73;6.63;;;19.90;99.90;;;;;;5008381;28;20156;-68
2023/10/12 12:30:55;;;;;;;13.52;6.15;;;19.90;99.90;;;;;;5006559;28;20031;-68
2023/10/12 12:33:23;;;;;;;15.55;5.65;;;20.00;99.90;;;;;;4992265;28;20362;-68
2023/10/12 12:36:08;;;;;;;10.48;6.20;;;20.00;99.90;;;;;;5008857;28;20027;-68
2023/10/12 12:41:18;;;;;;;11.50;6.45;;;20.00;99.90;;;;;;5001624;28;20113;-68
2023/10/12 12:43:51;;;;;;;11.07;6.30;;;20.00;99.90;;;;;;4997614;28;20029;-68
2023/10/12 12:46:18;;;;;;;11.95;6.75;;;20.00;99.90;;;;;;5011002;28;20022;-68
2023/10/12 12:48:48;;;;;;;10.10;5.68;;;20.00;99.90;;;;;;5003683;28;20054;-67
2023/10/12 12:51:18;;;;;;;10.65;6.25;;;20.00;99.90;;;;;;5012427;28;20065;-68
2023/10/12 12:53:48;;;;;;;9.57;6.35;;;20.10;99.90;;;;;;5011158;28;20484;-68
2023/10/12 12:56:19;;;;;;;10.48;7.00;;;20.10;99.90;;;;;;5007086;28;20081;-67
2023/10/12 12:58:49;;;;;;;14.70;7.37;;;20.10;99.90;;;;;;5006340;28;20034;-68
2023/10/12 13:01:23;;;;;;;15.30;7.00;;;20.10;99.90;;;;;;5004402;28;20471;-68
2023/10/12 13:03:56;;;;;;;13.00;7.07;;;20.10;99.90;;;;;;5011756;28;20030;-69
2023/10/12 13:06:23;;;;;;;12.70;7.30;;;20.00;99.90;;;;;;5006076;28;20028;-68
2023/10/12 13:08:50;;;;;;;10.68;6.80;;;20.00;99.90;;;;;;5007492;28;20034;-69
2023/10/12 13:11:25;;;;;;;10.88;7.18;;;20.10;99.90;;;;;;5000071;28;20467;-68
2023/10/12 13:13:51;;;;;;;10.65;7.43;;;20.10;99.90;;;;;;5001305;28;20117;-68
2023/10/12 13:16:17;;;;;;;12.20;6.78;;;20.10;99.90;;;;;;5002360;28;20022;-68
2023/10/12 13:18:47;;;;;;;10.88;7.05;;;20.10;99.90;;;;;;5006801;28;20058;-68
2023/10/12 13:21:17;;;;;;;10.88;6.65;;;20.10;99.90;;;;;;5010376;28;20048;-68
2023/10/12 13:23:44;;;;;;;9.10;6.63;;;20.10;99.90;;;;;;5009694;28;20471;-68
2023/10/12 13:26:12;;;;;;;10.27;5.90;;;20.10;99.90;;;;;;5007486;28;20485;-67
2023/10/12 13:28:42;;;;;;;10.68;6.38;;;20.20;99.90;;;;;;5007951;28;20046;-68
2023/10/12 13:31:10;;;;;;;13.70;6.70;;;20.10;99.90;;;;;;5009459;28;20099;-68
2023/10/12 13:33:38;;;;;;;8.27;5.65;;;20.10;99.90;;;;;;5009958;28;20031;-68
2023/10/12 13:36:06;;;;;;;9.63;4.97;;;20.10;99.90;;;;;;5013275;28;20080;-68
2023/10/12 13:38:36;;;;;;;8.30;5.32;;;20.10;99.90;;;;;;5021159;28;20391;-68
2023/10/12 13:41:03;;;;;;;8.77;4.95;;;20.10;99.90;;;;;;5010262;28;20449;-68
2023/10/12 13:43:34;;;;;;;8.27;5.38;;;20.10;99.90;;;;;;5010830;28;20034;-68
2023/10/12 13:46:11;;;;;;;10.30;5.25;;;20.10;99.90;;;;;;5008035;28;20205;-69
2023/10/12 13:48:38;;;;;;;7.53;5.00;;;20.10;99.90;;;;;;5001826;28;20101;-68
2023/10/12 13:54:22;;;;;;;9.88;5.50;;;20.10;99.90;;;;;;5011483;28;20089;-67
2023/10/12 13:56:56;;;;;;;7.70;4.47;;;20.10;99.90;;;;;;5002310;28;20523;-68
2023/10/12 13:59:30;;;;;;;9.57;4.82;;;20.10;99.90;;;;;;5005177;28;20018;-68
2023/10/12 14:02:09;;;;;;;7.18;4.90;;;20.10;99.90;;;;;;5010059;28;20053;-68
2023/10/12 14:04:35;;;;;;;9.05;5.15;;;20.10;99.90;;;;;;5012531;28;20136;-68
2023/10/12 14:07:03;;;;;;;8.52;5.13;;;20.10;99.90;;;;;;5012233;28;20034;-68
2023/10/12 14:09:31;;;;;;;8.23;5.05;;;20.10;99.90;;;;;;5008917;28;20543;-68
2023/10/12 14:11:58;;;;;;;8.55;5.35;;;20.10;99.90;;;;;;5005397;28;20058;-67
2023/10/12 14:14:24;;;;;;;6.60;5.40;;;20.10;99.90;;;;;;5004136;28;20037;-68
2023/10/12 14:16:51;;;;;;;8.35;5.63;;;20.10;99.90;;;;;;5011138;28;20162;-66
2023/10/12 14:19:25;;;;;;;9.85;5.88;;;20.10;99.90;;;;;;5002180;28;20357;-68
2023/10/12 14:22:00;;;;;;;8.88;5.88;;;20.10;99.90;;;;;;5005411;28;20022;-68
2023/10/12 14:24:27;;;;;;;6.32;4.88;;;20.10;99.90;;;;;;4997400;28;20033;-69
2023/10/12 14:26:58;;;;;;;11.68;5.88;;;20.10;99.90;;;;;;5002979;28;20026;-69
2023/10/12 14:29:25;;;;;;;10.63;4.82;;;20.10;99.90;;;;;;5008711;28;20084;-70